createdAt,value
2023-02-23T00:02:07.326Z,98301.75
2023-02-23T00:04:36.149Z,98307.38
2023-02-23T00:07:06.272Z,98305.28
2023-02-23T00:09:37.141Z,98315.44
2023-02-23T00:12:09.787Z,98306.75
2023-02-23T00:14:38.548Z,98314.16
2023-02-23T00:17:14.931Z,98299.22
2023-02-23T00:19:43.785Z,98307.22
2023-02-23T00:22:12.760Z,98304.50
2023-02-23T00:24:43.215Z,98296.34
2023-02-23T00:27:17.551Z,98303.72
2023-02-23T00:29:49.342Z,98305.50
2023-02-23T00:32:21.656Z,98315.97
2023-02-23T00:34:52.398Z,98307.44
2023-02-23T00:37:22.617Z,98307.25
2023-02-23T00:39:51.768Z,98303.41
2023-02-23T00:42:19.602Z,98301.47
2023-02-23T00:44:48.978Z,98309.53
2023-02-23T00:47:16.902Z,98312.28
2023-02-23T00:49:45.169Z,98309.38
2023-02-23T00:52:14.716Z,98302.63
2023-02-23T00:54:42.730Z,98307.13
2023-02-23T00:57:10.954Z,98310.03
2023-02-23T00:59:38.781Z,98307.81
2023-02-23T01:02:06.796Z,98306.00
2023-02-23T01:04:34.684Z,98307.97
2023-02-23T01:07:06.372Z,98311.97
2023-02-23T01:09:34.334Z,98314.22
2023-02-23T01:12:02.221Z,98313.56
2023-02-23T01:14:31.164Z,98313.91
2023-02-23T01:16:59.948Z,98312.47
2023-02-23T01:19:28.650Z,98307.66
2023-02-23T01:21:56.604Z,98305.38
2023-02-23T01:24:24.567Z,98306.97
2023-02-23T01:26:53.440Z,98306.97
2023-02-23T01:29:21.369Z,98301.84
2023-02-23T01:31:51.773Z,98304.09
2023-02-23T01:34:23.965Z,98297.50
2023-02-23T01:36:52.318Z,98303.28
2023-02-23T01:39:20.994Z,98297.03
2023-02-23T01:41:51.688Z,98299.78
2023-02-23T01:44:19.477Z,98297.81
2023-02-23T01:46:49.391Z,98296.06
2023-02-23T01:49:25.631Z,98295.91
2023-02-23T01:52:10.855Z,98298.13
2023-02-23T01:54:50.547Z,98291.06
2023-02-23T01:57:24.867Z,98299.59
2023-02-23T01:59:53.715Z,98293.31
2023-02-23T02:02:33.769Z,98296.88
2023-02-23T02:05:04.700Z,98288.69
2023-02-23T02:07:35.353Z,98298.50
2023-02-23T02:10:12.988Z,98291.88
2023-02-23T02:12:52.107Z,98293.50
2023-02-23T02:15:22.772Z,98292.22
2023-02-23T02:18:23.315Z,98298.78
2023-02-23T02:20:57.336Z,98297.50
2023-02-23T02:23:43.978Z,98293.34
2023-02-23T02:26:37.163Z,98292.66
2023-02-23T02:29:38.504Z,98300.38
2023-02-23T02:32:39.381Z,98295.38
2023-02-23T02:35:28.961Z,98296.81
2023-02-23T02:38:24.553Z,98292.78
2023-02-23T02:41:04.981Z,98287.81
2023-02-23T02:43:42.972Z,98283.03
2023-02-23T02:46:41.515Z,98282.69
2023-02-23T02:49:26.646Z,98290.88
2023-02-23T02:52:15.612Z,98287.47
2023-02-23T02:54:57.200Z,98291.34
2023-02-23T02:57:28.959Z,98286.03
2023-02-23T03:00:16.900Z,98291.03
2023-02-23T03:03:05.314Z,98289.94
2023-02-23T03:06:08.979Z,98299.69
2023-02-23T03:09:09.533Z,98295.84
2023-02-23T03:12:00.003Z,98302.06
2023-02-23T03:14:53.029Z,98299.88
2023-02-23T03:17:57.533Z,98303.22
2023-02-23T03:20:54.383Z,98301.16
2023-02-23T03:23:50.013Z,98301.81
2023-02-23T03:26:53.887Z,98312.84
2023-02-23T03:30:10.275Z,98309.84
2023-02-23T03:33:06.791Z,98306.28
2023-02-23T03:36:05.406Z,98308.53
2023-02-23T03:39:04.488Z,98305.66
2023-02-23T03:41:54.596Z,98301.47
2023-02-23T03:44:55.826Z,98305.59
2023-02-23T03:47:46.563Z,98315.28
2023-02-23T03:50:56.783Z,98307.56
2023-02-23T03:53:53.678Z,98323.13
2023-02-23T03:56:45.220Z,98317.00
2023-02-23T03:59:35.470Z,98319.59
2023-02-23T04:02:25.558Z,98320.75
2023-02-23T04:05:16.115Z,98317.06
2023-02-23T04:08:06.630Z,98319.94
2023-02-23T04:10:55.458Z,98321.38
2023-02-23T04:13:28.468Z,98322.03
2023-02-23T04:16:07.343Z,98327.81
2023-02-23T04:18:37.545Z,98321.72
2023-02-23T04:21:07.039Z,98324.94
2023-02-23T04:23:40.580Z,98316.25
2023-02-23T04:26:08.523Z,98315.63
2023-02-23T04:28:36.584Z,98313.88
2023-02-23T04:31:04.655Z,98316.94
2023-02-23T04:33:32.622Z,98321.25
2023-02-23T04:36:00.448Z,98316.47
2023-02-23T04:38:28.335Z,98318.72
2023-02-23T04:40:56.279Z,98313.72
2023-02-23T04:43:24.167Z,98321.09
2023-02-23T04:45:52.167Z,98324.00
2023-02-23T04:48:20.078Z,98315.66
2023-02-23T04:50:52.694Z,98309.56
2023-02-23T04:53:20.596Z,98323.69
2023-02-23T04:55:48.481Z,98323.50
2023-02-23T04:58:16.370Z,98312.91
2023-02-23T05:00:44.932Z,98319.97
2023-02-23T05:03:12.982Z,98312.28
2023-02-23T05:05:40.892Z,98311.63
2023-02-23T05:08:08.916Z,98313.25
2023-02-23T05:10:38.182Z,98315.31
2023-02-23T05:13:07.805Z,98319.34
2023-02-23T05:15:35.693Z,98305.53
2023-02-23T05:18:03.632Z,98310.81
2023-02-23T05:20:31.482Z,98318.56
2023-02-23T05:22:59.402Z,98312.28
2023-02-23T05:25:27.332Z,98310.38
2023-02-23T05:27:55.203Z,98312.13
2023-02-23T05:30:23.109Z,98307.16
2023-02-23T05:32:51.532Z,98309.22
2023-02-23T05:35:20.467Z,98308.28
2023-02-23T05:37:50.616Z,98310.38
2023-02-23T05:40:18.649Z,98303.13
2023-02-23T05:42:46.749Z,98315.50
2023-02-23T05:45:14.684Z,98324.66
2023-02-23T05:47:42.544Z,98320.31
2023-02-23T05:50:11.529Z,98316.28
2023-02-23T05:52:41.532Z,98318.03
2023-02-23T05:55:11.847Z,98325.13
2023-02-23T05:57:41.206Z,98334.25
2023-02-23T06:00:13.577Z,98337.47
2023-02-23T06:02:42.139Z,98325.28
2023-02-23T06:05:11.619Z,98336.19
2023-02-23T06:07:40.364Z,98329.78
2023-02-23T06:10:08.602Z,98340.34
2023-02-23T06:12:36.585Z,98347.91
2023-02-23T06:15:04.998Z,98344.84
2023-02-23T06:17:32.918Z,98342.47
2023-02-23T06:20:02.069Z,98345.53
2023-02-23T06:22:31.295Z,98354.34
2023-02-23T06:24:59.225Z,98352.72
2023-02-23T06:27:27.094Z,98348.88
2023-02-23T06:29:54.922Z,98350.97
2023-02-23T06:32:22.805Z,98360.13
2023-02-23T06:34:52.113Z,98365.88
2023-02-23T06:37:20.118Z,98362.88
2023-02-23T06:39:48.251Z,98366.72
2023-02-23T06:42:16.688Z,98368.00
2023-02-23T06:44:44.556Z,98365.28
2023-02-23T06:47:12.375Z,98370.78
2023-02-23T06:49:40.653Z,98368.19
2023-02-23T06:52:09.467Z,98368.66
2023-02-23T06:54:40.021Z,98366.56
2023-02-23T06:57:09.129Z,98378.44
2023-02-23T06:59:37.528Z,98373.81
2023-02-23T07:02:05.841Z,98375.72
2023-02-23T07:04:33.975Z,98379.44
2023-02-23T07:07:01.907Z,98378.63
2023-02-23T07:09:30.693Z,98387.47
2023-02-23T07:11:59.852Z,98391.19
2023-02-23T07:14:28.269Z,98386.34
2023-02-23T07:16:56.101Z,98399.88
2023-02-23T07:19:24.010Z,98393.59
2023-02-23T07:21:51.881Z,98391.50
2023-02-23T07:24:19.991Z,98390.22
2023-02-23T07:26:49.417Z,98387.34
2023-02-23T07:29:17.313Z,98391.34
2023-02-23T07:31:45.215Z,98393.09
2023-02-23T07:34:13.145Z,98387.63
2023-02-23T07:36:40.974Z,98393.28
2023-02-23T07:39:08.830Z,98394.72
2023-02-23T07:41:36.760Z,98394.38
2023-02-23T07:44:04.833Z,98382.50
2023-02-23T07:46:32.725Z,98394.09
2023-02-23T07:49:00.616Z,98398.09
2023-02-23T07:51:28.533Z,98401.63
2023-02-23T07:53:56.576Z,98392.94
2023-02-23T07:56:24.402Z,98395.03
2023-02-23T07:58:52.350Z,98400.50
2023-02-23T08:01:20.428Z,98395.97
2023-02-23T08:03:50.338Z,98398.56
2023-02-23T08:06:19.939Z,98402.25
2023-02-23T08:08:48.088Z,98397.91
2023-02-23T08:11:16.062Z,98403.53
2023-02-23T08:13:43.910Z,98401.44
2023-02-23T08:16:12.581Z,98407.38
2023-02-23T08:18:40.527Z,98404.19
2023-02-23T08:21:08.400Z,98404.31
2023-02-23T08:23:36.311Z,98412.81
2023-02-23T08:26:04.768Z,98409.06
2023-02-23T08:28:32.709Z,98409.94
2023-02-23T08:31:00.821Z,98413.31
2023-02-23T08:33:29.304Z,98417.16
2023-02-23T08:35:59.522Z,98416.03
2023-02-23T08:38:27.379Z,98408.47
2023-02-23T08:40:55.300Z,98409.25
2023-02-23T08:43:23.122Z,98415.50
2023-02-23T08:45:51.175Z,98409.72
2023-02-23T08:48:19.345Z,98412.84
2023-02-23T08:50:49.842Z,98417.25
2023-02-23T08:53:17.756Z,98415.59
2023-02-23T08:55:45.630Z,98423.00
2023-02-23T08:58:13.537Z,98417.06
2023-02-23T09:00:41.364Z,98416.25
2023-02-23T09:03:09.192Z,98413.19
2023-02-23T09:05:38.573Z,98413.84
2023-02-23T09:08:07.222Z,98420.44
2023-02-23T09:10:35.768Z,98427.69
2023-02-23T09:13:03.956Z,98427.16
2023-02-23T09:15:31.941Z,98430.09
2023-02-23T09:18:02.123Z,98421.34
2023-02-23T09:20:30.021Z,98424.38
2023-02-23T09:22:58.183Z,98425.53
2023-02-23T09:25:27.246Z,98428.66
2023-02-23T09:27:57.149Z,98428.66
2023-02-23T09:30:27.216Z,98425.03
2023-02-23T09:32:56.438Z,98427.75
2023-02-23T09:35:24.841Z,98429.91
2023-02-23T09:37:55.286Z,98425.34
2023-02-23T09:40:27.328Z,98422.25
2023-02-23T09:43:06.689Z,98426.72
2023-02-23T09:45:44.731Z,98408.16
2023-02-23T09:48:19.669Z,98429.66
2023-02-23T09:50:55.127Z,98427.59
2023-02-23T09:53:25.941Z,98430.63
2023-02-23T09:55:55.646Z,98427.06
2023-02-23T09:58:32.244Z,98425.19
2023-02-23T10:01:30.839Z,98430.28
2023-02-23T10:04:32.484Z,98427.94
2023-02-23T10:07:23.120Z,98429.41
2023-02-23T10:10:24.230Z,98426.53
2023-02-23T10:13:16.157Z,98435.09
2023-02-23T10:16:21.754Z,98434.44
2023-02-23T10:18:53.793Z,98420.84
2023-02-23T10:21:30.170Z,98430.16
2023-02-23T10:24:19.404Z,98424.06
2023-02-23T10:26:55.205Z,98426.47
2023-02-23T10:29:35.246Z,98419.72
2023-02-23T10:32:42.391Z,98414.88
2023-02-23T10:35:15.835Z,98413.88
2023-02-23T10:37:44.648Z,98414.44
2023-02-23T10:40:18.422Z,98408.09
2023-02-23T10:42:46.459Z,98408.47
2023-02-23T10:45:23.289Z,98409.28
2023-02-23T10:47:58.053Z,98405.00
2023-02-23T10:50:29.351Z,98403.69
2023-02-23T10:53:20.325Z,98396.75
2023-02-23T10:56:05.362Z,98392.06
2023-02-23T10:58:42.737Z,98402.41
2023-02-23T11:01:10.810Z,98392.03
2023-02-23T11:03:42.893Z,98393.34
2023-02-23T11:06:42.305Z,98388.56
2023-02-23T11:09:36.945Z,98389.25
2023-02-23T11:12:28.518Z,98381.44
2023-02-23T11:14:57.667Z,98377.44
2023-02-23T11:17:29.775Z,98371.78
2023-02-23T11:19:59.766Z,98373.59
2023-02-23T11:22:32.133Z,98363.34
2023-02-23T11:25:03.966Z,98372.94
2023-02-23T11:27:32.004Z,98365.06
2023-02-23T11:30:06.201Z,98361.13
2023-02-23T11:32:42.393Z,98360.69
2023-02-23T11:35:13.506Z,98359.88
2023-02-23T11:37:41.816Z,98350.56
2023-02-23T11:40:23.758Z,98350.34
2023-02-23T11:42:57.536Z,98360.81
2023-02-23T11:45:27.957Z,98355.22
2023-02-23T11:48:04.762Z,98351.59
2023-02-23T11:50:36.668Z,98345.75
2023-02-23T11:53:17.435Z,98348.78
2023-02-23T11:55:52.997Z,98346.56
2023-02-23T11:58:49.477Z,98340.53
2023-02-23T12:01:44.570Z,98335.25
2023-02-23T12:04:37.008Z,98340.91
2023-02-23T12:07:29.690Z,98340.16
2023-02-23T12:10:23.111Z,98343.50
2023-02-23T12:13:20.945Z,98339.69
2023-02-23T12:16:02.817Z,98337.72
2023-02-23T12:18:33.637Z,98329.84
2023-02-23T12:21:20.858Z,98321.81
2023-02-23T12:23:51.400Z,98325.69
2023-02-23T12:26:23.504Z,98321.81
2023-02-23T12:29:06.421Z,98317.44
2023-02-23T12:31:45.632Z,98318.41
2023-02-23T12:34:36.047Z,98319.84
2023-02-23T12:37:22.925Z,98312.22
2023-02-23T12:39:59.131Z,98307.63
2023-02-23T12:42:44.212Z,98316.03
2023-02-23T12:45:41.053Z,98303.88
2023-02-23T12:48:25.028Z,98304.34
2023-02-23T12:50:56.909Z,98286.63
2023-02-23T12:53:37.733Z,98301.53
2023-02-23T12:56:23.963Z,98300.69
2023-02-23T12:59:14.316Z,98298.00
2023-02-23T13:01:51.311Z,98299.81
2023-02-23T13:04:38.153Z,98297.19
2023-02-23T13:07:09.037Z,98295.72
2023-02-23T13:09:44.646Z,98295.47
2023-02-23T13:12:27.958Z,98290.84
2023-02-23T13:15:01.699Z,98293.09
2023-02-23T13:17:51.056Z,98279.22
2023-02-23T13:20:22.610Z,98281.34
2023-02-23T13:22:59.738Z,98285.22
2023-02-23T13:25:34.059Z,98287.25
2023-02-23T13:28:02.181Z,98284.03
2023-02-23T13:30:35.506Z,98284.69
2023-02-23T13:33:15.871Z,98279.38
2023-02-23T13:35:44.255Z,98285.28
2023-02-23T13:38:28.256Z,98276.25
2023-02-23T13:41:11.606Z,98276.97
2023-02-23T13:43:57.313Z,98280.53
2023-02-23T13:46:45.375Z,98278.03
2023-02-23T13:49:28.501Z,98277.75
2023-02-23T13:52:01.495Z,98277.50
2023-02-23T13:54:34.847Z,98278.66
2023-02-23T13:57:16.820Z,98268.53
2023-02-23T13:59:46.373Z,98268.63
2023-02-23T14:02:38.371Z,98269.31
2023-02-23T14:05:21.253Z,98266.56
2023-02-23T14:07:54.047Z,98265.94
2023-02-23T14:10:28.947Z,98265.63
2023-02-23T14:13:05.917Z,98265.00
2023-02-23T14:15:40.278Z,98269.56
2023-02-23T14:18:17.539Z,98268.56
2023-02-23T14:21:19.200Z,98267.13
2023-02-23T14:24:05.946Z,98275.06
2023-02-23T14:26:43.123Z,98266.44
2023-02-23T14:29:25.654Z,98268.81
2023-02-23T14:32:03.649Z,98261.69
2023-02-23T14:34:57.067Z,98266.59
2023-02-23T14:37:41.542Z,98260.53
2023-02-23T14:40:21.489Z,98260.16
2023-02-23T14:42:51.935Z,98264.97
2023-02-23T14:45:27.179Z,98264.78
2023-02-23T14:47:59.983Z,98264.69
2023-02-23T14:50:31.662Z,98250.81
2023-02-23T14:53:04.440Z,98267.34
2023-02-23T14:55:36.743Z,98269.78
2023-02-23T14:58:18.040Z,98264.94
2023-02-23T15:00:46.091Z,98263.88
2023-02-23T15:03:13.961Z,98267.72
2023-02-23T15:05:48.264Z,98256.13
2023-02-23T15:08:19.834Z,98268.91
2023-02-23T15:10:52.152Z,98263.50
2023-02-23T15:13:29.749Z,98259.16
2023-02-23T15:16:12.845Z,98260.53
2023-02-23T15:18:43.509Z,98262.94
2023-02-23T15:21:23.096Z,98260.28
2023-02-23T15:23:58.210Z,98262.50
2023-02-23T15:26:32.018Z,98252.88
2023-02-23T15:29:06.308Z,98253.00
2023-02-23T15:31:35.021Z,98255.31
2023-02-23T15:34:03.482Z,98242.44
2023-02-23T15:36:34.880Z,98250.78
2023-02-23T15:39:06.512Z,98242.00
2023-02-23T15:41:37.406Z,98246.69
2023-02-23T15:44:14.642Z,98250.00
2023-02-23T15:46:45.819Z,98246.03
2023-02-23T15:49:14.859Z,98243.72
2023-02-23T15:51:59.741Z,98244.41
2023-02-23T15:54:31.154Z,98245.44
2023-02-23T15:57:05.927Z,98241.59
2023-02-23T15:59:38.063Z,98243.22
2023-02-23T16:02:19.390Z,98241.59
2023-02-23T16:04:53.811Z,98238.50
2023-02-23T16:07:24.945Z,98237.59
2023-02-23T16:10:04.954Z,98233.47
2023-02-23T16:12:37.048Z,98238.16
2023-02-23T16:15:37.060Z,98222.25
2023-02-23T16:18:11.928Z,98219.06
2023-02-23T16:20:47.616Z,98216.13
2023-02-23T16:23:41.908Z,98218.16
2023-02-23T16:26:31.005Z,98234.31
2023-02-23T16:29:02.205Z,98219.75
2023-02-23T16:31:43.457Z,98218.88
2023-02-23T16:34:31.760Z,98221.03
2023-02-23T16:37:03.237Z,98219.09
2023-02-23T16:39:34.291Z,98218.22
2023-02-23T16:42:02.264Z,98221.84
2023-02-23T16:44:42.900Z,98225.41
2023-02-23T16:47:30.798Z,98227.13
2023-02-23T16:50:00.741Z,98232.63
2023-02-23T16:52:30.403Z,98231.50
2023-02-23T16:54:58.347Z,98234.25
2023-02-23T16:57:38.610Z,98234.63
2023-02-23T17:00:14.706Z,98226.69
2023-02-23T17:02:42.865Z,98236.94
2023-02-23T17:05:19.222Z,98241.03
2023-02-23T17:07:48.626Z,98228.56
2023-02-23T17:10:30.733Z,98239.88
2023-02-23T17:13:05.183Z,98244.34
2023-02-23T17:15:37.594Z,98243.00
2023-02-23T17:18:05.921Z,98245.97
2023-02-23T17:20:33.984Z,98243.69
2023-02-23T17:23:02.966Z,98244.94
2023-02-23T17:25:31.015Z,98243.44
2023-02-23T17:28:00.544Z,98240.81
2023-02-23T17:30:29.815Z,98234.63
2023-02-23T17:32:59.235Z,98235.44
2023-02-23T17:35:27.891Z,98248.13
2023-02-23T17:37:55.851Z,98249.63
2023-02-23T17:40:31.281Z,98246.47
2023-02-23T17:43:00.651Z,98246.88
2023-02-23T17:45:28.888Z,98242.31
2023-02-23T17:47:58.331Z,98248.16
2023-02-23T17:50:27.101Z,98239.53
2023-02-23T17:52:57.037Z,98250.78
2023-02-23T17:55:25.577Z,98254.66
2023-02-23T17:57:53.441Z,98247.56
2023-02-23T18:00:21.418Z,98251.66
2023-02-23T18:02:49.395Z,98244.69
2023-02-23T18:05:17.881Z,98247.09
2023-02-23T18:07:48.254Z,98250.88
2023-02-23T18:10:16.987Z,98246.31
2023-02-23T18:12:45.166Z,98248.13
2023-02-23T18:15:13.198Z,98253.75
2023-02-23T18:17:41.103Z,98247.31
2023-02-23T18:20:10.915Z,98260.25
2023-02-23T18:22:39.313Z,98256.47
2023-02-23T18:25:07.886Z,98250.19
2023-02-23T18:27:35.786Z,98259.69
2023-02-23T18:30:04.085Z,98258.53
2023-02-23T18:32:32.103Z,98253.94
2023-02-23T18:35:00.045Z,98254.41
2023-02-23T18:37:28.720Z,98263.56
2023-02-23T18:39:58.890Z,98259.31
2023-02-23T18:42:26.933Z,98253.28
2023-02-23T18:44:55.782Z,98245.81
2023-02-23T18:47:24.289Z,98255.00
2023-02-23T18:49:52.831Z,98246.16
2023-02-23T18:52:20.719Z,98249.59
2023-02-23T18:54:48.576Z,98246.16
2023-02-23T18:57:16.438Z,98239.28
2023-02-23T18:59:46.082Z,98241.38
2023-02-23T19:02:14.144Z,98247.41
2023-02-23T19:04:42.079Z,98238.13
2023-02-23T19:07:09.977Z,98240.66
2023-02-23T19:09:40.856Z,98243.16
2023-02-23T19:12:08.808Z,98243.63
2023-02-23T19:14:48.972Z,98241.31
2023-02-23T19:17:17.432Z,98242.56
2023-02-23T19:19:45.342Z,98240.38
2023-02-23T19:22:13.595Z,98242.00
2023-02-23T19:24:41.471Z,98241.19
2023-02-23T19:27:10.283Z,98246.66
2023-02-23T19:29:38.279Z,98251.78
2023-02-23T19:32:06.260Z,98250.22
2023-02-23T19:34:34.380Z,98251.94
2023-02-23T19:37:02.892Z,98251.59
2023-02-23T19:39:30.764Z,98252.16
2023-02-23T19:41:58.720Z,98249.97
2023-02-23T19:44:26.856Z,98253.06
2023-02-23T19:46:54.827Z,98249.63
2023-02-23T19:49:23.085Z,98244.38
2023-02-23T19:51:52.875Z,98251.69
2023-02-23T19:54:21.846Z,98248.84
2023-02-23T19:56:49.965Z,98242.34
2023-02-23T19:59:17.803Z,98247.22
2023-02-23T20:01:45.946Z,98243.34
2023-02-23T20:04:13.842Z,98240.25
2023-02-23T20:06:47.280Z,98238.19
2023-02-23T20:09:15.246Z,98235.59
2023-02-23T20:11:43.197Z,98242.88
2023-02-23T20:14:12.408Z,98241.94
2023-02-23T20:16:40.442Z,98237.63
2023-02-23T20:19:08.509Z,98245.16
2023-02-23T20:21:36.839Z,98234.97
2023-02-23T20:24:05.642Z,98243.34
2023-02-23T20:26:37.022Z,98236.91
2023-02-23T20:29:11.177Z,98240.00
2023-02-23T20:31:42.062Z,98237.72
2023-02-23T20:34:12.052Z,98233.16
2023-02-23T20:36:40.210Z,98235.34
2023-02-23T20:39:10.335Z,98229.41
2023-02-23T20:41:43.398Z,98229.72
2023-02-23T20:44:12.754Z,98232.13
2023-02-23T20:46:42.204Z,98224.69
2023-02-23T20:49:10.713Z,98235.88
2023-02-23T20:51:43.379Z,98227.88
2023-02-23T20:54:12.430Z,98230.25
2023-02-23T20:56:41.595Z,98230.41
2023-02-23T20:59:12.796Z,98233.34
2023-02-23T21:01:42.189Z,98223.88
2023-02-23T21:04:12.743Z,98231.88
2023-02-23T21:06:40.760Z,98226.59
2023-02-23T21:09:17.834Z,98234.56
2023-02-23T21:11:45.983Z,98228.22
2023-02-23T21:14:14.389Z,98227.75
2023-02-23T21:16:46.684Z,98234.00
2023-02-23T21:19:16.835Z,98224.44
2023-02-23T21:21:47.961Z,98211.94
2023-02-23T21:24:18.250Z,98222.88
2023-02-23T21:26:46.585Z,98222.31
2023-02-23T21:29:18.086Z,98217.66
2023-02-23T21:31:47.022Z,98224.63
2023-02-23T21:34:18.846Z,98209.78
2023-02-23T21:36:47.611Z,98214.41
2023-02-23T21:39:15.718Z,98215.69
2023-02-23T21:41:43.555Z,98205.19
2023-02-23T21:44:11.639Z,98209.06
2023-02-23T21:46:40.466Z,98212.34
2023-02-23T21:49:09.857Z,98209.72
2023-02-23T21:51:39.009Z,98209.41
2023-02-23T21:54:07.117Z,98209.63
2023-02-23T21:56:36.151Z,98215.63
2023-02-23T21:59:06.221Z,98211.91
2023-02-23T22:01:37.014Z,98205.16
2023-02-23T22:04:07.049Z,98210.47
2023-02-23T22:06:38.899Z,98208.69
2023-02-23T22:09:11.356Z,98209.56
2023-02-23T22:11:44.367Z,98206.81
2023-02-23T22:14:16.749Z,98208.34
2023-02-23T22:16:45.827Z,98201.75
2023-02-23T22:19:13.800Z,98205.06
2023-02-23T22:21:41.925Z,98201.69
2023-02-23T22:24:11.932Z,98199.75
2023-02-23T22:26:42.277Z,98213.50
2023-02-23T22:29:10.613Z,98202.06
2023-02-23T22:31:39.540Z,98201.22
2023-02-23T22:34:07.696Z,98196.75
2023-02-23T22:36:35.601Z,98197.22
2023-02-23T22:39:07.374Z,98195.59
2023-02-23T22:41:42.262Z,98197.88
2023-02-23T22:44:19.380Z,98197.31
2023-02-23T22:46:47.968Z,98196.66
2023-02-23T22:49:16.515Z,98193.31
2023-02-23T22:51:44.434Z,98188.34
2023-02-23T22:54:13.463Z,98183.63
2023-02-23T22:56:42.299Z,98184.91
2023-02-23T22:59:10.833Z,98189.72
2023-02-23T23:01:39.457Z,98185.72
2023-02-23T23:04:10.840Z,98181.34
2023-02-23T23:06:40.497Z,98183.63
2023-02-23T23:09:16.430Z,98181.31
2023-02-23T23:11:45.254Z,98170.75
2023-02-23T23:14:13.647Z,98176.22
2023-02-23T23:16:53.245Z,98169.41
2023-02-23T23:19:24.370Z,98171.22
2023-02-23T23:21:55.730Z,98174.22
2023-02-23T23:24:24.810Z,98173.13
2023-02-23T23:26:55.603Z,98166.06
2023-02-23T23:29:25.613Z,98160.13
2023-02-23T23:31:53.942Z,98163.44
2023-02-23T23:34:21.976Z,98161.59
2023-02-23T23:36:52.890Z,98138.31
2023-02-23T23:39:22.740Z,98152.00
2023-02-23T23:41:50.761Z,98148.53
2023-02-23T23:44:21.387Z,98137.38
2023-02-23T23:46:52.893Z,98142.84
2023-02-23T23:49:25.551Z,98147.75
2023-02-23T23:51:58.503Z,98149.09
2023-02-23T23:54:28.729Z,98143.19
2023-02-23T23:56:58.245Z,98143.53
2023-02-23T23:59:32.617Z,98137.25
